sensor_id;sensor_type;location;lat;lon;timestamp;P1;durP1;ratioP1;P2;durP2;ratioP2
11924;SDS011;6022;48.768;18.608;2023-02-24T00:01:58;15.77;;;4.70;;
11924;SDS011;6022;48.768;18.608;2023-02-24T00:04:34;3.37;;;2.50;;
11924;SDS011;6022;48.768;18.608;2023-02-24T00:07:05;8.40;;;4.63;;
11924;SDS011;6022;48.768;18.608;2023-02-24T00:09:36;8.23;;;4.43;;
11924;SDS011;6022;48.768;18.608;2023-02-24T00:12:06;7.07;;;3.27;;
11924;SDS011;6022;48.768;18.608;2023-02-24T00:14:37;7.50;;;4.73;;
11924;SDS011;6022;48.768;18.608;2023-02-24T00:17:07;9.10;;;3.37;;
11924;SDS011;6022;48.768;18.608;2023-02-24T00:19:40;3.00;;;2.80;;
11924;SDS011;6022;48.768;18.608;2023-02-24T00:22:07;6.87;;;3.33;;
11924;SDS011;6022;48.768;18.608;2023-02-24T00:24:35;4.93;;;2.80;;
11924;SDS011;6022;48.768;18.608;2023-02-24T00:27:03;4.50;;;3.07;;
11924;SDS011;6022;48.768;18.608;2023-02-24T00:29:38;4.27;;;2.93;;
11924;SDS011;6022;48.768;18.608;2023-02-24T00:32:07;4.10;;;3.27;;
11924;SDS011;6022;48.768;18.608;2023-02-24T00:34:38;5.43;;;3.33;;
11924;SDS011;6022;48.768;18.608;2023-02-24T00:37:06;2.47;;;2.33;;
11924;SDS011;6022;48.768;18.608;2023-02-24T00:39:34;5.13;;;2.87;;
11924;SDS011;6022;48.768;18.608;2023-02-24T00:42:06;3.07;;;2.30;;
11924;SDS011;6022;48.768;18.608;2023-02-24T00:44:35;4.17;;;2.87;;
11924;SDS011;6022;48.768;18.608;2023-02-24T00:47:10;4.47;;;2.97;;
11924;SDS011;6022;48.768;18.608;2023-02-24T00:49:39;3.37;;;2.53;;
11924;SDS011;6022;48.768;18.608;2023-02-24T00:52:09;2.93;;;2.40;;
11924;SDS011;6022;48.768;18.608;2023-02-24T00:54:57;4.47;;;3.50;;
11924;SDS011;6022;48.768;18.608;2023-02-24T00:57:25;3.97;;;2.10;;
11924;SDS011;6022;48.768;18.608;2023-02-24T00:59:58;3.90;;;2.57;;
11924;SDS011;6022;48.768;18.608;2023-02-24T01:02:45;4.33;;;2.73;;
11924;SDS011;6022;48.768;18.608;2023-02-24T01:05:13;6.37;;;2.53;;
11924;SDS011;6022;48.768;18.608;2023-02-24T01:07:40;6.57;;;2.97;;
11924;SDS011;6022;48.768;18.608;2023-02-24T01:10:09;3.07;;;2.80;;
11924;SDS011;6022;48.768;18.608;2023-02-24T01:12:37;3.23;;;2.73;;
11924;SDS011;6022;48.768;18.608;2023-02-24T01:15:16;3.47;;;2.00;;
11924;SDS011;6022;48.768;18.608;2023-02-24T01:17:46;2.37;;;1.77;;
11924;SDS011;6022;48.768;18.608;2023-02-24T01:20:13;3.17;;;2.87;;
11924;SDS011;6022;48.768;18.608;2023-02-24T01:22:48;5.00;;;2.43;;
11924;SDS011;6022;48.768;18.608;2023-02-24T01:25:22;2.77;;;2.50;;
11924;SDS011;6022;48.768;18.608;2023-02-24T01:27:49;4.83;;;2.27;;
11924;SDS011;6022;48.768;18.608;2023-02-24T01:30:18;6.47;;;3.53;;
11924;SDS011;6022;48.768;18.608;2023-02-24T01:32:46;4.77;;;2.30;;
11924;SDS011;6022;48.768;18.608;2023-02-24T01:35:14;4.50;;;2.73;;
11924;SDS011;6022;48.768;18.608;2023-02-24T01:37:41;3.33;;;2.13;;
11924;SDS011;6022;48.768;18.608;2023-02-24T01:40:10;4.33;;;3.40;;
11924;SDS011;6022;48.768;18.608;2023-02-24T01:42:44;5.20;;;4.23;;
11924;SDS011;6022;48.768;18.608;2023-02-24T01:45:22;5.53;;;3.27;;
11924;SDS011;6022;48.768;18.608;2023-02-24T01:47:56;3.87;;;2.83;;
11924;SDS011;6022;48.768;18.608;2023-02-24T01:50:30;3.13;;;2.60;;
11924;SDS011;6022;48.768;18.608;2023-02-24T01:53:04;2.63;;;2.43;;
11924;SDS011;6022;48.768;18.608;2023-02-24T01:55:39;3.83;;;2.63;;
11924;SDS011;6022;48.768;18.608;2023-02-24T01:58:18;7.67;;;3.50;;
11924;SDS011;6022;48.768;18.608;2023-02-24T02:00:50;2.67;;;2.13;;
11924;SDS011;6022;48.768;18.608;2023-02-24T02:06:06;3.17;;;2.70;;
11924;SDS011;6022;48.768;18.608;2023-02-24T02:08:37;7.20;;;2.10;;
11924;SDS011;6022;48.768;18.608;2023-02-24T02:11:09;3.50;;;1.93;;
11924;SDS011;6022;48.768;18.608;2023-02-24T02:13:46;3.20;;;2.17;;
11924;SDS011;6022;48.768;18.608;2023-02-24T02:22:58;5.60;;;1.47;;
11924;SDS011;6022;48.768;18.608;2023-02-24T02:26:27;4.67;;;2.70;;
11924;SDS011;6022;48.768;18.608;2023-02-24T02:29:22;1.57;;;1.47;;
11924;SDS011;6022;48.768;18.608;2023-02-24T02:38:17;3.87;;;2.83;;
11924;SDS011;6022;48.768;18.608;2023-02-24T02:41:05;5.97;;;2.57;;
11924;SDS011;6022;48.768;18.608;2023-02-24T02:46:39;4.33;;;2.30;;
11924;SDS011;6022;48.768;18.608;2023-02-24T02:49:24;4.17;;;3.00;;
11924;SDS011;6022;48.768;18.608;2023-02-24T02:52:08;3.60;;;3.27;;
11924;SDS011;6022;48.768;18.608;2023-02-24T02:54:59;4.03;;;2.10;;
11924;SDS011;6022;48.768;18.608;2023-02-24T02:57:37;1.90;;;1.80;;
11924;SDS011;6022;48.768;18.608;2023-02-24T03:02:48;3.00;;;2.50;;
11924;SDS011;6022;48.768;18.608;2023-02-24T03:05:23;4.57;;;3.20;;
11924;SDS011;6022;48.768;18.608;2023-02-24T03:07:58;14.87;;;3.87;;
11924;SDS011;6022;48.768;18.608;2023-02-24T03:10:31;3.93;;;2.90;;
11924;SDS011;6022;48.768;18.608;2023-02-24T03:13:00;2.20;;;1.87;;
11924;SDS011;6022;48.768;18.608;2023-02-24T03:15:34;3.33;;;3.03;;
11924;SDS011;6022;48.768;18.608;2023-02-24T03:18:08;5.43;;;3.53;;
11924;SDS011;6022;48.768;18.608;2023-02-24T03:20:52;5.97;;;2.43;;
11924;SDS011;6022;48.768;18.608;2023-02-24T03:23:30;2.77;;;2.57;;
11924;SDS011;6022;48.768;18.608;2023-02-24T03:28:56;4.60;;;2.90;;
11924;SDS011;6022;48.768;18.608;2023-02-24T03:31:29;2.07;;;1.93;;
11924;SDS011;6022;48.768;18.608;2023-02-24T03:34:24;5.87;;;3.47;;
11924;SDS011;6022;48.768;18.608;2023-02-24T03:37:20;2.77;;;2.53;;
11924;SDS011;6022;48.768;18.608;2023-02-24T03:39:53;2.77;;;2.53;;
11924;SDS011;6022;48.768;18.608;2023-02-24T03:42:29;4.57;;;2.57;;
11924;SDS011;6022;48.768;18.608;2023-02-24T03:44:59;5.67;;;3.27;;
11924;SDS011;6022;48.768;18.608;2023-02-24T03:47:27;4.27;;;2.37;;
11924;SDS011;6022;48.768;18.608;2023-02-24T03:49:55;3.83;;;3.17;;
11924;SDS011;6022;48.768;18.608;2023-02-24T03:58:40;5.23;;;3.67;;
11924;SDS011;6022;48.768;18.608;2023-02-24T04:01:11;3.57;;;3.00;;
11924;SDS011;6022;48.768;18.608;2023-02-24T04:04:00;3.50;;;2.87;;
11924;SDS011;6022;48.768;18.608;2023-02-24T04:06:50;5.00;;;2.67;;
11924;SDS011;6022;48.768;18.608;2023-02-24T04:12:20;3.07;;;2.77;;
11924;SDS011;6022;48.768;18.608;2023-02-24T04:15:15;3.97;;;3.10;;
11924;SDS011;6022;48.768;18.608;2023-02-24T04:18:04;3.90;;;3.53;;
11924;SDS011;6022;48.768;18.608;2023-02-24T04:20:42;4.53;;;2.60;;
11924;SDS011;6022;48.768;18.608;2023-02-24T04:23:16;4.40;;;2.80;;
11924;SDS011;6022;48.768;18.608;2023-02-24T04:25:52;3.70;;;3.30;;
11924;SDS011;6022;48.768;18.608;2023-02-24T04:28:23;4.00;;;2.87;;
11924;SDS011;6022;48.768;18.608;2023-02-24T04:30:58;3.60;;;2.83;;
11924;SDS011;6022;48.768;18.608;2023-02-24T04:33:31;3.07;;;2.70;;
11924;SDS011;6022;48.768;18.608;2023-02-24T04:35:59;3.17;;;2.87;;
11924;SDS011;6022;48.768;18.608;2023-02-24T04:38:26;4.07;;;3.20;;
11924;SDS011;6022;48.768;18.608;2023-02-24T04:40:53;5.07;;;3.50;;
11924;SDS011;6022;48.768;18.608;2023-02-24T04:43:21;3.00;;;2.17;;
11924;SDS011;6022;48.768;18.608;2023-02-24T04:45:48;5.43;;;3.67;;
11924;SDS011;6022;48.768;18.608;2023-02-24T04:48:16;5.47;;;3.30;;
11924;SDS011;6022;48.768;18.608;2023-02-24T04:50:45;4.83;;;3.23;;
11924;SDS011;6022;48.768;18.608;2023-02-24T04:53:20;3.40;;;1.93;;
11924;SDS011;6022;48.768;18.608;2023-02-24T04:55:52;3.20;;;2.90;;
11924;SDS011;6022;48.768;18.608;2023-02-24T04:58:23;5.10;;;2.60;;
11924;SDS011;6022;48.768;18.608;2023-02-24T05:00:53;7.63;;;3.60;;
11924;SDS011;6022;48.768;18.608;2023-02-24T05:03:22;5.37;;;3.20;;
11924;SDS011;6022;48.768;18.608;2023-02-24T05:05:55;9.23;;;3.70;;
11924;SDS011;6022;48.768;18.608;2023-02-24T05:08:29;16.23;;;3.67;;
11924;SDS011;6022;48.768;18.608;2023-02-24T05:10:56;2.83;;;2.23;;
11924;SDS011;6022;48.768;18.608;2023-02-24T05:13:27;3.60;;;2.70;;
11924;SDS011;6022;48.768;18.608;2023-02-24T05:16:02;6.57;;;3.33;;
11924;SDS011;6022;48.768;18.608;2023-02-24T05:18:33;6.07;;;3.13;;
11924;SDS011;6022;48.768;18.608;2023-02-24T05:21:05;4.60;;;2.63;;
11924;SDS011;6022;48.768;18.608;2023-02-24T05:23:55;3.50;;;2.40;;
11924;SDS011;6022;48.768;18.608;2023-02-24T05:26:28;5.43;;;2.70;;
11924;SDS011;6022;48.768;18.608;2023-02-24T05:29:03;3.93;;;3.23;;
11924;SDS011;6022;48.768;18.608;2023-02-24T05:31:32;3.60;;;2.83;;
11924;SDS011;6022;48.768;18.608;2023-02-24T05:34:01;3.87;;;2.80;;
11924;SDS011;6022;48.768;18.608;2023-02-24T05:36:34;5.80;;;2.93;;
11924;SDS011;6022;48.768;18.608;2023-02-24T05:39:06;4.80;;;2.83;;
11924;SDS011;6022;48.768;18.608;2023-02-24T05:41:38;3.77;;;2.77;;
11924;SDS011;6022;48.768;18.608;2023-02-24T05:44:17;5.43;;;3.53;;
11924;SDS011;6022;48.768;18.608;2023-02-24T05:46:55;4.53;;;2.77;;
11924;SDS011;6022;48.768;18.608;2023-02-24T05:49:25;4.20;;;3.43;;
11924;SDS011;6022;48.768;18.608;2023-02-24T05:52:05;4.10;;;3.40;;
11924;SDS011;6022;48.768;18.608;2023-02-24T05:54:38;5.10;;;3.13;;
11924;SDS011;6022;48.768;18.608;2023-02-24T05:57:12;2.97;;;2.60;;
11924;SDS011;6022;48.768;18.608;2023-02-24T05:59:44;4.50;;;3.43;;
11924;SDS011;6022;48.768;18.608;2023-02-24T06:02:21;3.67;;;3.33;;
11924;SDS011;6022;48.768;18.608;2023-02-24T06:04:53;10.30;;;3.97;;
11924;SDS011;6022;48.768;18.608;2023-02-24T06:07:22;8.57;;;3.80;;
11924;SDS011;6022;48.768;18.608;2023-02-24T06:09:53;4.93;;;3.73;;
11924;SDS011;6022;48.768;18.608;2023-02-24T06:12:28;7.10;;;3.47;;
11924;SDS011;6022;48.768;18.608;2023-02-24T06:15:00;4.87;;;3.37;;
11924;SDS011;6022;48.768;18.608;2023-02-24T06:17:33;3.40;;;2.03;;
11924;SDS011;6022;48.768;18.608;2023-02-24T06:20:00;5.77;;;4.23;;
11924;SDS011;6022;48.768;18.608;2023-02-24T06:22:41;3.13;;;2.83;;
11924;SDS011;6022;48.768;18.608;2023-02-24T06:25:09;11.43;;;2.50;;
11924;SDS011;6022;48.768;18.608;2023-02-24T06:27:37;4.37;;;2.97;;
11924;SDS011;6022;48.768;18.608;2023-02-24T06:30:05;6.17;;;3.63;;
11924;SDS011;6022;48.768;18.608;2023-02-24T06:32:35;3.90;;;3.53;;
11924;SDS011;6022;48.768;18.608;2023-02-24T06:35:03;6.17;;;2.43;;
11924;SDS011;6022;48.768;18.608;2023-02-24T06:37:31;4.90;;;4.27;;
11924;SDS011;6022;48.768;18.608;2023-02-24T06:39:59;7.07;;;4.23;;
11924;SDS011;6022;48.768;18.608;2023-02-24T06:42:28;3.23;;;2.37;;
11924;SDS011;6022;48.768;18.608;2023-02-24T06:44:55;2.83;;;2.63;;
11924;SDS011;6022;48.768;18.608;2023-02-24T06:47:22;9.30;;;4.27;;
11924;SDS011;6022;48.768;18.608;2023-02-24T06:49:58;5.10;;;3.23;;
11924;SDS011;6022;48.768;18.608;2023-02-24T06:52:25;7.47;;;3.70;;
11924;SDS011;6022;48.768;18.608;2023-02-24T06:54:52;6.37;;;3.87;;
11924;SDS011;6022;48.768;18.608;2023-02-24T06:57:19;6.17;;;4.03;;
11924;SDS011;6022;48.768;18.608;2023-02-24T06:59:48;4.00;;;2.73;;
11924;SDS011;6022;48.768;18.608;2023-02-24T07:02:16;5.40;;;3.30;;
11924;SDS011;6022;48.768;18.608;2023-02-24T07:04:43;6.13;;;4.00;;
11924;SDS011;6022;48.768;18.608;2023-02-24T07:07:13;2.40;;;2.20;;
11924;SDS011;6022;48.768;18.608;2023-02-24T07:09:42;5.03;;;3.27;;
11924;SDS011;6022;48.768;18.608;2023-02-24T07:12:10;4.77;;;3.73;;
11924;SDS011;6022;48.768;18.608;2023-02-24T07:14:38;4.97;;;3.43;;
11924;SDS011;6022;48.768;18.608;2023-02-24T07:17:06;5.37;;;4.70;;
11924;SDS011;6022;48.768;18.608;2023-02-24T07:19:36;8.63;;;4.87;;
11924;SDS011;6022;48.768;18.608;2023-02-24T07:22:03;7.63;;;4.03;;
11924;SDS011;6022;48.768;18.608;2023-02-24T07:24:32;5.53;;;3.07;;
11924;SDS011;6022;48.768;18.608;2023-02-24T07:27:03;6.50;;;3.30;;
11924;SDS011;6022;48.768;18.608;2023-02-24T07:29:48;6.13;;;4.30;;
11924;SDS011;6022;48.768;18.608;2023-02-24T07:32:20;7.07;;;3.97;;
11924;SDS011;6022;48.768;18.608;2023-02-24T07:34:48;5.70;;;4.47;;
11924;SDS011;6022;48.768;18.608;2023-02-24T07:37:15;4.33;;;3.67;;
11924;SDS011;6022;48.768;18.608;2023-02-24T07:39:45;6.10;;;4.50;;
11924;SDS011;6022;48.768;18.608;2023-02-24T07:42:17;5.10;;;4.20;;
11924;SDS011;6022;48.768;18.608;2023-02-24T07:44:44;6.90;;;4.70;;
11924;SDS011;6022;48.768;18.608;2023-02-24T07:47:14;4.20;;;3.80;;
11924;SDS011;6022;48.768;18.608;2023-02-24T07:49:42;7.63;;;3.43;;
11924;SDS011;6022;48.768;18.608;2023-02-24T07:52:11;9.27;;;5.67;;
11924;SDS011;6022;48.768;18.608;2023-02-24T07:54:39;6.80;;;4.00;;
11924;SDS011;6022;48.768;18.608;2023-02-24T07:57:08;8.43;;;4.37;;
11924;SDS011;6022;48.768;18.608;2023-02-24T07:59:40;7.60;;;2.73;;
11924;SDS011;6022;48.768;18.608;2023-02-24T08:02:10;5.80;;;3.20;;
11924;SDS011;6022;48.768;18.608;2023-02-24T08:04:42;3.83;;;3.00;;
11924;SDS011;6022;48.768;18.608;2023-02-24T08:07:18;8.23;;;4.30;;
11924;SDS011;6022;48.768;18.608;2023-02-24T08:09:51;5.20;;;4.00;;
11924;SDS011;6022;48.768;18.608;2023-02-24T08:12:50;13.13;;;4.77;;
11924;SDS011;6022;48.768;18.608;2023-02-24T08:15:25;14.40;;;4.43;;
11924;SDS011;6022;48.768;18.608;2023-02-24T08:18:00;9.77;;;5.07;;
11924;SDS011;6022;48.768;18.608;2023-02-24T08:20:29;5.60;;;4.07;;
11924;SDS011;6022;48.768;18.608;2023-02-24T08:23:33;4.43;;;3.57;;
11924;SDS011;6022;48.768;18.608;2023-02-24T08:26:10;4.17;;;3.77;;
11924;SDS011;6022;48.768;18.608;2023-02-24T08:28:38;14.73;;;5.30;;
11924;SDS011;6022;48.768;18.608;2023-02-24T08:31:06;5.50;;;4.97;;
11924;SDS011;6022;48.768;18.608;2023-02-24T08:33:57;7.73;;;4.30;;
11924;SDS011;6022;48.768;18.608;2023-02-24T08:36:27;7.87;;;5.23;;
11924;SDS011;6022;48.768;18.608;2023-02-24T08:38:54;7.90;;;4.43;;
11924;SDS011;6022;48.768;18.608;2023-02-24T08:41:25;6.80;;;4.03;;
11924;SDS011;6022;48.768;18.608;2023-02-24T08:44:14;5.77;;;4.20;;
11924;SDS011;6022;48.768;18.608;2023-02-24T08:46:44;7.33;;;4.27;;
11924;SDS011;6022;48.768;18.608;2023-02-24T08:49:16;6.17;;;4.80;;
11924;SDS011;6022;48.768;18.608;2023-02-24T08:51:46;6.83;;;4.67;;
11924;SDS011;6022;48.768;18.608;2023-02-24T08:54:16;5.83;;;3.43;;
11924;SDS011;6022;48.768;18.608;2023-02-24T08:56:58;8.33;;;4.47;;
11924;SDS011;6022;48.768;18.608;2023-02-24T08:59:34;7.00;;;4.67;;
11924;SDS011;6022;48.768;18.608;2023-02-24T09:02:24;9.73;;;5.37;;
11924;SDS011;6022;48.768;18.608;2023-02-24T09:04:59;6.53;;;5.23;;
11924;SDS011;6022;48.768;18.608;2023-02-24T09:07:34;8.40;;;6.07;;
11924;SDS011;6022;48.768;18.608;2023-02-24T09:10:11;8.43;;;5.60;;
11924;SDS011;6022;48.768;18.608;2023-02-24T09:12:44;7.97;;;4.93;;
11924;SDS011;6022;48.768;18.608;2023-02-24T09:15:14;7.20;;;5.27;;
11924;SDS011;6022;48.768;18.608;2023-02-24T09:17:46;8.47;;;5.37;;
11924;SDS011;6022;48.768;18.608;2023-02-24T09:20:17;6.13;;;4.60;;
11924;SDS011;6022;48.768;18.608;2023-02-24T09:23:07;6.23;;;4.17;;
11924;SDS011;6022;48.768;18.608;2023-02-24T09:25:45;11.33;;;6.90;;
11924;SDS011;6022;48.768;18.608;2023-02-24T09:31:14;9.83;;;5.53;;
11924;SDS011;6022;48.768;18.608;2023-02-24T09:33:44;5.33;;;4.57;;
11924;SDS011;6022;48.768;18.608;2023-02-24T09:36:17;6.87;;;4.17;;
11924;SDS011;6022;48.768;18.608;2023-02-24T09:38:54;9.40;;;5.53;;
11924;SDS011;6022;48.768;18.608;2023-02-24T09:47:04;8.67;;;5.87;;
11924;SDS011;6022;48.768;18.608;2023-02-24T09:49:47;9.77;;;5.20;;
11924;SDS011;6022;48.768;18.608;2023-02-24T09:52:26;7.13;;;4.23;;
11924;SDS011;6022;48.768;18.608;2023-02-24T10:04:17;7.63;;;4.97;;
11924;SDS011;6022;48.768;18.608;2023-02-24T10:07:07;5.77;;;5.10;;
11924;SDS011;6022;48.768;18.608;2023-02-24T10:10:09;5.83;;;3.70;;
11924;SDS011;6022;48.768;18.608;2023-02-24T10:12:59;10.03;;;4.57;;
11924;SDS011;6022;48.768;18.608;2023-02-24T10:15:40;10.23;;;5.90;;
11924;SDS011;6022;48.768;18.608;2023-02-24T10:32:24;6.80;;;5.37;;
11924;SDS011;6022;48.768;18.608;2023-02-24T10:35:17;5.70;;;5.17;;
11924;SDS011;6022;48.768;18.608;2023-02-24T10:37:52;7.27;;;5.57;;
11924;SDS011;6022;48.768;18.608;2023-02-24T10:40:24;8.43;;;5.77;;
11924;SDS011;6022;48.768;18.608;2023-02-24T10:43:10;7.43;;;4.47;;
11924;SDS011;6022;48.768;18.608;2023-02-24T10:45:47;11.17;;;6.20;;
11924;SDS011;6022;48.768;18.608;2023-02-24T10:48:23;10.03;;;6.37;;
11924;SDS011;6022;48.768;18.608;2023-02-24T10:51:14;8.20;;;3.80;;
11924;SDS011;6022;48.768;18.608;2023-02-24T10:54:18;8.50;;;5.33;;
11924;SDS011;6022;48.768;18.608;2023-02-24T10:57:05;12.90;;;6.40;;
11924;SDS011;6022;48.768;18.608;2023-02-24T10:59:59;11.13;;;5.37;;
11924;SDS011;6022;48.768;18.608;2023-02-24T11:02:50;10.43;;;5.63;;
11924;SDS011;6022;48.768;18.608;2023-02-24T11:05:37;10.47;;;6.07;;
11924;SDS011;6022;48.768;18.608;2023-02-24T11:08:24;8.07;;;4.80;;
11924;SDS011;6022;48.768;18.608;2023-02-24T11:11:23;11.30;;;6.87;;
11924;SDS011;6022;48.768;18.608;2023-02-24T11:14:23;17.03;;;6.93;;
11924;SDS011;6022;48.768;18.608;2023-02-24T11:17:18;12.33;;;6.37;;
11924;SDS011;6022;48.768;18.608;2023-02-24T11:19:59;8.17;;;5.10;;
11924;SDS011;6022;48.768;18.608;2023-02-24T11:22:47;8.87;;;4.90;;
11924;SDS011;6022;48.768;18.608;2023-02-24T11:28:15;12.60;;;6.73;;
11924;SDS011;6022;48.768;18.608;2023-02-24T11:34:01;16.87;;;5.80;;
11924;SDS011;6022;48.768;18.608;2023-02-24T11:39:15;12.10;;;6.37;;
11924;SDS011;6022;48.768;18.608;2023-02-24T11:42:02;12.17;;;6.27;;
11924;SDS011;6022;48.768;18.608;2023-02-24T11:47:25;10.70;;;5.83;;
11924;SDS011;6022;48.768;18.608;2023-02-24T11:52:59;13.43;;;7.87;;
11924;SDS011;6022;48.768;18.608;2023-02-24T11:55:41;9.73;;;6.80;;
11924;SDS011;6022;48.768;18.608;2023-02-24T11:58:18;9.27;;;6.40;;
11924;SDS011;6022;48.768;18.608;2023-02-24T12:01:04;10.63;;;6.47;;
11924;SDS011;6022;48.768;18.608;2023-02-24T12:10:46;9.13;;;5.70;;
11924;SDS011;6022;48.768;18.608;2023-02-24T12:19:11;8.90;;;5.70;;
11924;SDS011;6022;48.768;18.608;2023-02-24T12:22:19;7.03;;;5.43;;
11924;SDS011;6022;48.768;18.608;2023-02-24T12:24:58;7.93;;;5.20;;
11924;SDS011;6022;48.768;18.608;2023-02-24T12:27:46;7.83;;;5.37;;
11924;SDS011;6022;48.768;18.608;2023-02-24T12:30:44;9.33;;;5.17;;
11924;SDS011;6022;48.768;18.608;2023-02-24T12:33:51;10.80;;;6.37;;
11924;SDS011;6022;48.768;18.608;2023-02-24T12:36:46;9.50;;;5.33;;
11924;SDS011;6022;48.768;18.608;2023-02-24T12:46:00;18.40;;;6.03;;
11924;SDS011;6022;48.768;18.608;2023-02-24T12:57:27;8.50;;;7.07;;
11924;SDS011;6022;48.768;18.608;2023-02-24T13:00:28;14.00;;;6.07;;
11924;SDS011;6022;48.768;18.608;2023-02-24T13:06:19;11.47;;;6.80;;
11924;SDS011;6022;48.768;18.608;2023-02-24T13:14:34;12.10;;;6.87;;
11924;SDS011;6022;48.768;18.608;2023-02-24T13:19:41;11.47;;;7.50;;
11924;SDS011;6022;48.768;18.608;2023-02-24T13:22:26;12.50;;;6.87;;
11924;SDS011;6022;48.768;18.608;2023-02-24T13:27:36;19.50;;;6.10;;
11924;SDS011;6022;48.768;18.608;2023-02-24T13:32:46;18.33;;;6.97;;
11924;SDS011;6022;48.768;18.608;2023-02-24T13:35:29;8.07;;;4.93;;
11924;SDS011;6022;48.768;18.608;2023-02-24T13:38:23;7.40;;;5.57;;
11924;SDS011;6022;48.768;18.608;2023-02-24T13:41:15;8.23;;;5.53;;
11924;SDS011;6022;48.768;18.608;2023-02-24T13:47:10;9.23;;;4.63;;
11924;SDS011;6022;48.768;18.608;2023-02-24T13:52:51;6.13;;;4.87;;
11924;SDS011;6022;48.768;18.608;2023-02-24T13:56:24;6.50;;;4.93;;
11924;SDS011;6022;48.768;18.608;2023-02-24T14:01:58;9.57;;;5.63;;
11924;SDS011;6022;48.768;18.608;2023-02-24T14:04:37;9.37;;;6.13;;
11924;SDS011;6022;48.768;18.608;2023-02-24T14:07:19;7.90;;;5.17;;
11924;SDS011;6022;48.768;18.608;2023-02-24T14:10:02;9.40;;;5.70;;
11924;SDS011;6022;48.768;18.608;2023-02-24T14:12:46;10.30;;;7.00;;
11924;SDS011;6022;48.768;18.608;2023-02-24T14:15:18;7.00;;;5.23;;
11924;SDS011;6022;48.768;18.608;2023-02-24T14:17:56;10.97;;;6.43;;
11924;SDS011;6022;48.768;18.608;2023-02-24T14:20:34;7.60;;;5.53;;
11924;SDS011;6022;48.768;18.608;2023-02-24T14:23:18;10.53;;;5.60;;
11924;SDS011;6022;48.768;18.608;2023-02-24T14:25:57;10.87;;;6.27;;
11924;SDS011;6022;48.768;18.608;2023-02-24T14:28:49;9.63;;;6.60;;
11924;SDS011;6022;48.768;18.608;2023-02-24T14:31:26;9.63;;;5.73;;
11924;SDS011;6022;48.768;18.608;2023-02-24T14:33:56;8.20;;;5.67;;
11924;SDS011;6022;48.768;18.608;2023-02-24T14:36:52;9.10;;;5.00;;
11924;SDS011;6022;48.768;18.608;2023-02-24T14:39:26;9.63;;;5.73;;
11924;SDS011;6022;48.768;18.608;2023-02-24T14:42:12;7.83;;;4.83;;
11924;SDS011;6022;48.768;18.608;2023-02-24T14:44:51;12.17;;;6.17;;
11924;SDS011;6022;48.768;18.608;2023-02-24T14:47:24;24.83;;;6.03;;
11924;SDS011;6022;48.768;18.608;2023-02-24T14:49:59;19.00;;;6.73;;
11924;SDS011;6022;48.768;18.608;2023-02-24T14:52:40;11.50;;;6.13;;
11924;SDS011;6022;48.768;18.608;2023-02-24T14:55:18;12.37;;;6.63;;
11924;SDS011;6022;48.768;18.608;2023-02-24T15:03:59;8.03;;;4.83;;
11924;SDS011;6022;48.768;18.608;2023-02-24T15:06:46;11.80;;;5.90;;
11924;SDS011;6022;48.768;18.608;2023-02-24T15:09:15;15.07;;;6.70;;
11924;SDS011;6022;48.768;18.608;2023-02-24T15:11:51;11.20;;;6.73;;
11924;SDS011;6022;48.768;18.608;2023-02-24T15:14:25;10.40;;;5.87;;
11924;SDS011;6022;48.768;18.608;2023-02-24T15:17:07;13.47;;;6.37;;
11924;SDS011;6022;48.768;18.608;2023-02-24T15:19:42;10.97;;;6.17;;
11924;SDS011;6022;48.768;18.608;2023-02-24T15:22:18;14.63;;;7.03;;
11924;SDS011;6022;48.768;18.608;2023-02-24T15:24:46;8.67;;;6.33;;
11924;SDS011;6022;48.768;18.608;2023-02-24T15:27:22;18.57;;;7.97;;
11924;SDS011;6022;48.768;18.608;2023-02-24T15:29:57;9.63;;;6.60;;
11924;SDS011;6022;48.768;18.608;2023-02-24T15:32:35;10.70;;;6.70;;
11924;SDS011;6022;48.768;18.608;2023-02-24T15:35:04;10.57;;;6.83;;
11924;SDS011;6022;48.768;18.608;2023-02-24T15:37:40;13.97;;;6.50;;
11924;SDS011;6022;48.768;18.608;2023-02-24T15:40:20;10.87;;;7.53;;
11924;SDS011;6022;48.768;18.608;2023-02-24T15:46:43;11.93;;;6.63;;
11924;SDS011;6022;48.768;18.608;2023-02-24T15:49:17;13.43;;;5.67;;
11924;SDS011;6022;48.768;18.608;2023-02-24T15:51:52;8.60;;;6.77;;
11924;SDS011;6022;48.768;18.608;2023-02-24T15:54:28;12.33;;;7.23;;
11924;SDS011;6022;48.768;18.608;2023-02-24T15:57:08;11.20;;;5.63;;
11924;SDS011;6022;48.768;18.608;2023-02-24T15:59:40;12.53;;;6.87;;
11924;SDS011;6022;48.768;18.608;2023-02-24T16:02:15;13.93;;;6.87;;
11924;SDS011;6022;48.768;18.608;2023-02-24T16:04:46;11.90;;;6.50;;
11924;SDS011;6022;48.768;18.608;2023-02-24T16:07:16;14.50;;;7.40;;
11924;SDS011;6022;48.768;18.608;2023-02-24T16:09:48;10.70;;;6.37;;
11924;SDS011;6022;48.768;18.608;2023-02-24T16:12:24;12.40;;;6.77;;
11924;SDS011;6022;48.768;18.608;2023-02-24T16:14:59;11.63;;;7.03;;
11924;SDS011;6022;48.768;18.608;2023-02-24T16:17:32;7.77;;;5.63;;
11924;SDS011;6022;48.768;18.608;2023-02-24T16:20:15;9.93;;;7.03;;
11924;SDS011;6022;48.768;18.608;2023-02-24T16:23:00;13.10;;;6.43;;
11924;SDS011;6022;48.768;18.608;2023-02-24T16:25:33;11.13;;;6.07;;
11924;SDS011;6022;48.768;18.608;2023-02-24T16:28:16;9.13;;;5.33;;
11924;SDS011;6022;48.768;18.608;2023-02-24T16:30:47;8.13;;;5.60;;
11924;SDS011;6022;48.768;18.608;2023-02-24T16:33:16;9.67;;;5.83;;
11924;SDS011;6022;48.768;18.608;2023-02-24T16:35:50;6.17;;;4.60;;
11924;SDS011;6022;48.768;18.608;2023-02-24T16:38:21;11.63;;;6.77;;
11924;SDS011;6022;48.768;18.608;2023-02-24T16:40:53;15.17;;;7.07;;
11924;SDS011;6022;48.768;18.608;2023-02-24T16:43:21;11.70;;;6.93;;
11924;SDS011;6022;48.768;18.608;2023-02-24T16:45:50;16.47;;;8.63;;
11924;SDS011;6022;48.768;18.608;2023-02-24T16:48:26;9.80;;;6.87;;
11924;SDS011;6022;48.768;18.608;2023-02-24T16:51:00;15.80;;;6.50;;
11924;SDS011;6022;48.768;18.608;2023-02-24T16:53:31;10.30;;;6.00;;
11924;SDS011;6022;48.768;18.608;2023-02-24T16:55:59;11.43;;;8.27;;
11924;SDS011;6022;48.768;18.608;2023-02-24T16:58:27;16.80;;;8.67;;
11924;SDS011;6022;48.768;18.608;2023-02-24T17:00:55;17.17;;;7.57;;
11924;SDS011;6022;48.768;18.608;2023-02-24T17:03:40;9.60;;;5.83;;
11924;SDS011;6022;48.768;18.608;2023-02-24T17:06:11;9.53;;;5.80;;
11924;SDS011;6022;48.768;18.608;2023-02-24T17:08:38;7.57;;;5.13;;
11924;SDS011;6022;48.768;18.608;2023-02-24T17:11:10;12.80;;;8.60;;
11924;SDS011;6022;48.768;18.608;2023-02-24T17:13:47;10.97;;;7.57;;
11924;SDS011;6022;48.768;18.608;2023-02-24T17:16:15;12.07;;;7.67;;
11924;SDS011;6022;48.768;18.608;2023-02-24T17:18:42;12.37;;;6.37;;
11924;SDS011;6022;48.768;18.608;2023-02-24T17:21:17;12.37;;;6.47;;
11924;SDS011;6022;48.768;18.608;2023-02-24T17:23:45;12.37;;;7.23;;
11924;SDS011;6022;48.768;18.608;2023-02-24T17:26:14;14.13;;;8.10;;
11924;SDS011;6022;48.768;18.608;2023-02-24T17:28:50;15.83;;;10.23;;
11924;SDS011;6022;48.768;18.608;2023-02-24T17:31:17;12.00;;;8.00;;
11924;SDS011;6022;48.768;18.608;2023-02-24T17:33:45;10.80;;;6.80;;
11924;SDS011;6022;48.768;18.608;2023-02-24T17:36:12;12.33;;;6.77;;
11924;SDS011;6022;48.768;18.608;2023-02-24T17:38:40;16.80;;;8.50;;
11924;SDS011;6022;48.768;18.608;2023-02-24T17:41:07;13.37;;;9.60;;
11924;SDS011;6022;48.768;18.608;2023-02-24T17:43:37;17.03;;;7.83;;
11924;SDS011;6022;48.768;18.608;2023-02-24T17:46:05;10.90;;;6.37;;
11924;SDS011;6022;48.768;18.608;2023-02-24T17:48:33;13.60;;;8.33;;
11924;SDS011;6022;48.768;18.608;2023-02-24T17:51:00;17.27;;;8.17;;
11924;SDS011;6022;48.768;18.608;2023-02-24T17:53:28;14.70;;;6.43;;
11924;SDS011;6022;48.768;18.608;2023-02-24T17:56:03;14.17;;;8.57;;
11924;SDS011;6022;48.768;18.608;2023-02-24T17:58:32;15.90;;;6.97;;